sensor_id;sensor_type;location;lat;lon;timestamp;P1;durP1;ratioP1;P2;durP2;ratioP2
703;SDS011;335;48.694;9.120;2022-12-07T00:00:50;8.55;;;7.63;;
703;SDS011;335;48.694;9.120;2022-12-07T00:03:15;11.30;;;9.37;;
703;SDS011;335;48.694;9.120;2022-12-07T00:05:40;9.70;;;7.60;;
703;SDS011;335;48.694;9.120;2022-12-07T00:08:06;9.50;;;8.30;;
703;SDS011;335;48.694;9.120;2022-12-07T00:10:33;8.73;;;7.83;;
703;SDS011;335;48.694;9.120;2022-12-07T00:12:58;11.60;;;10.35;;
703;SDS011;335;48.694;9.120;2022-12-07T00:15:24;11.20;;;8.30;;
703;SDS011;335;48.694;9.120;2022-12-07T00:17:49;9.20;;;8.33;;
703;SDS011;335;48.694;9.120;2022-12-07T00:20:14;9.70;;;8.70;;
703;SDS011;335;48.694;9.120;2022-12-07T00:22:40;8.73;;;7.87;;
703;SDS011;335;48.694;9.120;2022-12-07T00:25:05;8.40;;;7.17;;
703;SDS011;335;48.694;9.120;2022-12-07T00:27:31;8.80;;;8.00;;
703;SDS011;335;48.694;9.120;2022-12-07T00:29:56;8.80;;;7.67;;
703;SDS011;335;48.694;9.120;2022-12-07T00:32:21;11.03;;;9.87;;
703;SDS011;335;48.694;9.120;2022-12-07T00:34:47;9.97;;;8.83;;
703;SDS011;335;48.694;9.120;2022-12-07T00:37:12;9.53;;;8.53;;
703;SDS011;335;48.694;9.120;2022-12-07T00:39:38;7.80;;;6.90;;
703;SDS011;335;48.694;9.120;2022-12-07T00:42:03;8.73;;;7.67;;
703;SDS011;335;48.694;9.120;2022-12-07T00:44:28;10.10;;;8.87;;
703;SDS011;335;48.694;9.120;2022-12-07T00:46:54;9.63;;;8.20;;
703;SDS011;335;48.694;9.120;2022-12-07T00:49:20;8.68;;;7.80;;
703;SDS011;335;48.694;9.120;2022-12-07T00:51:47;11.20;;;8.30;;
703;SDS011;335;48.694;9.120;2022-12-07T00:54:13;9.85;;;8.85;;
703;SDS011;335;48.694;9.120;2022-12-07T00:56:38;9.13;;;8.23;;
703;SDS011;335;48.694;9.120;2022-12-07T00:59:04;13.60;;;10.90;;
703;SDS011;335;48.694;9.120;2022-12-07T01:01:31;11.40;;;9.50;;
703;SDS011;335;48.694;9.120;2022-12-07T01:03:57;11.23;;;10.23;;
703;SDS011;335;48.694;9.120;2022-12-07T01:06:23;10.03;;;9.03;;
703;SDS011;335;48.694;9.120;2022-12-07T01:08:49;12.25;;;10.98;;
703;SDS011;335;48.694;9.120;2022-12-07T01:11:16;10.60;;;9.30;;
703;SDS011;335;48.694;9.120;2022-12-07T01:13:43;9.63;;;8.73;;
703;SDS011;335;48.694;9.120;2022-12-07T01:16:09;11.33;;;10.07;;
703;SDS011;335;48.694;9.120;2022-12-07T01:18:36;12.10;;;9.50;;
703;SDS011;335;48.694;9.120;2022-12-07T01:21:05;11.00;;;9.90;;
703;SDS011;335;48.694;9.120;2022-12-07T01:23:33;11.43;;;10.23;;
703;SDS011;335;48.694;9.120;2022-12-07T01:26:00;11.27;;;9.98;;
703;SDS011;335;48.694;9.120;2022-12-07T01:28:27;12.25;;;9.80;;
703;SDS011;335;48.694;9.120;2022-12-07T01:30:59;9.77;;;8.77;;
703;SDS011;335;48.694;9.120;2022-12-07T01:33:33;10.23;;;8.50;;
703;SDS011;335;48.694;9.120;2022-12-07T01:36:01;9.52;;;8.50;;
703;SDS011;335;48.694;9.120;2022-12-07T01:38:30;10.35;;;9.23;;
703;SDS011;335;48.694;9.120;2022-12-07T01:40:56;11.55;;;10.13;;
703;SDS011;335;48.694;9.120;2022-12-07T01:43:22;10.65;;;9.55;;
703;SDS011;335;48.694;9.120;2022-12-07T01:45:49;11.07;;;9.77;;
703;SDS011;335;48.694;9.120;2022-12-07T01:48:15;10.77;;;9.70;;
703;SDS011;335;48.694;9.120;2022-12-07T01:50:42;10.45;;;9.35;;
703;SDS011;335;48.694;9.120;2022-12-07T01:53:08;12.00;;;10.57;;
703;SDS011;335;48.694;9.120;2022-12-07T01:55:35;11.43;;;10.25;;
703;SDS011;335;48.694;9.120;2022-12-07T01:58:03;12.43;;;11.13;;
703;SDS011;335;48.694;9.120;2022-12-07T02:00:29;11.43;;;10.30;;
703;SDS011;335;48.694;9.120;2022-12-07T02:03:11;13.67;;;10.83;;
703;SDS011;335;48.694;9.120;2022-12-07T02:05:43;11.73;;;10.38;;
703;SDS011;335;48.694;9.120;2022-12-07T02:08:09;13.60;;;10.30;;
703;SDS011;335;48.694;9.120;2022-12-07T02:10:36;13.70;;;11.07;;
703;SDS011;335;48.694;9.120;2022-12-07T02:13:06;11.63;;;9.70;;
703;SDS011;335;48.694;9.120;2022-12-07T02:15:58;11.35;;;10.15;;
703;SDS011;335;48.694;9.120;2022-12-07T02:21:40;11.93;;;10.45;;
703;SDS011;335;48.694;9.120;2022-12-07T02:35:11;11.40;;;10.20;;
703;SDS011;335;48.694;9.120;2022-12-07T02:40:52;12.60;;;11.07;;
703;SDS011;335;48.694;9.120;2022-12-07T02:43:40;11.48;;;10.23;;
703;SDS011;335;48.694;9.120;2022-12-07T02:46:09;12.40;;;10.57;;
703;SDS011;335;48.694;9.120;2022-12-07T02:48:38;14.43;;;12.38;;
703;SDS011;335;48.694;9.120;2022-12-07T02:51:04;11.33;;;10.03;;
703;SDS011;335;48.694;9.120;2022-12-07T02:53:34;11.07;;;9.70;;
703;SDS011;335;48.694;9.120;2022-12-07T03:01:56;12.95;;;10.18;;
703;SDS011;335;48.694;9.120;2022-12-07T03:07:33;10.45;;;9.35;;
703;SDS011;335;48.694;9.120;2022-12-07T03:15:15;11.30;;;9.55;;
703;SDS011;335;48.694;9.120;2022-12-07T03:17:45;10.00;;;8.98;;
703;SDS011;335;48.694;9.120;2022-12-07T03:20:11;12.25;;;10.98;;
703;SDS011;335;48.694;9.120;2022-12-07T03:22:38;12.43;;;9.63;;
703;SDS011;335;48.694;9.120;2022-12-07T03:25:06;11.68;;;10.48;;
703;SDS011;335;48.694;9.120;2022-12-07T03:27:37;10.73;;;9.57;;
703;SDS011;335;48.694;9.120;2022-12-07T03:30:08;12.40;;;9.40;;
703;SDS011;335;48.694;9.120;2022-12-07T03:32:38;10.15;;;9.02;;
703;SDS011;335;48.694;9.120;2022-12-07T03:35:16;9.75;;;8.88;;
703;SDS011;335;48.694;9.120;2022-12-07T03:37:48;10.88;;;9.70;;
703;SDS011;335;48.694;9.120;2022-12-07T03:40:37;12.45;;;10.23;;
703;SDS011;335;48.694;9.120;2022-12-07T03:43:06;12.30;;;10.13;;
703;SDS011;335;48.694;9.120;2022-12-07T03:45:39;10.73;;;9.00;;
703;SDS011;335;48.694;9.120;2022-12-07T03:48:07;11.95;;;9.45;;
703;SDS011;335;48.694;9.120;2022-12-07T03:53:30;10.80;;;9.70;;
703;SDS011;335;48.694;9.120;2022-12-07T03:56:00;10.23;;;8.52;;
703;SDS011;335;48.694;9.120;2022-12-07T03:58:26;11.23;;;9.93;;
703;SDS011;335;48.694;9.120;2022-12-07T04:00:52;11.77;;;10.57;;
703;SDS011;335;48.694;9.120;2022-12-07T04:03:17;11.40;;;9.80;;
703;SDS011;335;48.694;9.120;2022-12-07T04:05:43;10.73;;;9.60;;
703;SDS011;335;48.694;9.120;2022-12-07T04:08:09;12.02;;;9.80;;
703;SDS011;335;48.694;9.120;2022-12-07T04:10:34;10.53;;;9.47;;
703;SDS011;335;48.694;9.120;2022-12-07T04:12:59;12.10;;;10.20;;
703;SDS011;335;48.694;9.120;2022-12-07T04:15:25;11.80;;;10.60;;
703;SDS011;335;48.694;9.120;2022-12-07T04:17:51;11.43;;;9.93;;
703;SDS011;335;48.694;9.120;2022-12-07T04:20:16;10.47;;;8.83;;
703;SDS011;335;48.694;9.120;2022-12-07T04:22:41;10.37;;;9.03;;
703;SDS011;335;48.694;9.120;2022-12-07T04:25:07;10.10;;;8.97;;
703;SDS011;335;48.694;9.120;2022-12-07T04:27:32;12.33;;;10.27;;
703;SDS011;335;48.694;9.120;2022-12-07T04:29:58;12.40;;;10.00;;
703;SDS011;335;48.694;9.120;2022-12-07T04:32:23;10.10;;;9.03;;
703;SDS011;335;48.694;9.120;2022-12-07T04:34:49;12.27;;;9.53;;
703;SDS011;335;48.694;9.120;2022-12-07T04:37:14;8.97;;;8.07;;
703;SDS011;335;48.694;9.120;2022-12-07T04:39:39;9.53;;;8.60;;
703;SDS011;335;48.694;9.120;2022-12-07T04:42:05;9.70;;;8.70;;
703;SDS011;335;48.694;9.120;2022-12-07T04:44:30;10.57;;;9.47;;
703;SDS011;335;48.694;9.120;2022-12-07T04:46:56;10.07;;;8.63;;
703;SDS011;335;48.694;9.120;2022-12-07T04:49:22;8.93;;;7.80;;
703;SDS011;335;48.694;9.120;2022-12-07T04:51:47;8.83;;;7.93;;
703;SDS011;335;48.694;9.120;2022-12-07T04:54:14;7.23;;;6.17;;
703;SDS011;335;48.694;9.120;2022-12-07T04:56:40;7.72;;;6.70;;
703;SDS011;335;48.694;9.120;2022-12-07T04:59:05;6.43;;;5.70;;
703;SDS011;335;48.694;9.120;2022-12-07T05:01:31;7.27;;;6.57;;
703;SDS011;335;48.694;9.120;2022-12-07T05:03:57;8.05;;;7.25;;
703;SDS011;335;48.694;9.120;2022-12-07T05:06:23;6.50;;;5.90;;
703;SDS011;335;48.694;9.120;2022-12-07T05:08:48;8.30;;;7.50;;
703;SDS011;335;48.694;9.120;2022-12-07T05:11:14;7.87;;;7.13;;
703;SDS011;335;48.694;9.120;2022-12-07T05:13:58;7.35;;;6.50;;
703;SDS011;335;48.694;9.120;2022-12-07T05:16:23;8.40;;;6.83;;
703;SDS011;335;48.694;9.120;2022-12-07T05:18:49;8.17;;;7.30;;
703;SDS011;335;48.694;9.120;2022-12-07T05:21:14;9.53;;;7.40;;
703;SDS011;335;48.694;9.120;2022-12-07T05:23:39;12.90;;;7.90;;
703;SDS011;335;48.694;9.120;2022-12-07T05:26:05;9.27;;;8.30;;
703;SDS011;335;48.694;9.120;2022-12-07T05:28:30;9.40;;;7.77;;
703;SDS011;335;48.694;9.120;2022-12-07T05:30:55;9.20;;;8.20;;
703;SDS011;335;48.694;9.120;2022-12-07T05:33:21;11.53;;;9.07;;
703;SDS011;335;48.694;9.120;2022-12-07T05:35:46;11.40;;;9.30;;
703;SDS011;335;48.694;9.120;2022-12-07T05:38:11;10.93;;;9.30;;
703;SDS011;335;48.694;9.120;2022-12-07T05:40:37;10.90;;;9.73;;
703;SDS011;335;48.694;9.120;2022-12-07T05:43:02;12.30;;;9.53;;
703;SDS011;335;48.694;9.120;2022-12-07T05:45:27;11.70;;;10.03;;
703;SDS011;335;48.694;9.120;2022-12-07T05:47:53;9.77;;;8.73;;
703;SDS011;335;48.694;9.120;2022-12-07T05:50:18;12.23;;;9.30;;
703;SDS011;335;48.694;9.120;2022-12-07T05:52:43;10.40;;;9.00;;
703;SDS011;335;48.694;9.120;2022-12-07T05:55:09;9.20;;;7.83;;
703;SDS011;335;48.694;9.120;2022-12-07T05:57:34;12.63;;;9.70;;
703;SDS011;335;48.694;9.120;2022-12-07T05:59:59;8.60;;;7.43;;
703;SDS011;335;48.694;9.120;2022-12-07T06:02:25;9.17;;;8.17;;
703;SDS011;335;48.694;9.120;2022-12-07T06:04:50;9.77;;;8.77;;
703;SDS011;335;48.694;9.120;2022-12-07T06:07:16;9.90;;;7.97;;
703;SDS011;335;48.694;9.120;2022-12-07T06:09:41;8.57;;;7.67;;
703;SDS011;335;48.694;9.120;2022-12-07T06:12:08;11.17;;;8.57;;
703;SDS011;335;48.694;9.120;2022-12-07T06:14:56;9.80;;;7.88;;
703;SDS011;335;48.694;9.120;2022-12-07T06:17:21;11.00;;;7.97;;
703;SDS011;335;48.694;9.120;2022-12-07T06:19:46;9.40;;;7.87;;
703;SDS011;335;48.694;9.120;2022-12-07T06:22:12;9.20;;;7.90;;
703;SDS011;335;48.694;9.120;2022-12-07T06:24:38;9.53;;;8.60;;
703;SDS011;335;48.694;9.120;2022-12-07T06:27:04;10.07;;;8.48;;
703;SDS011;335;48.694;9.120;2022-12-07T06:29:29;8.13;;;7.30;;
703;SDS011;335;48.694;9.120;2022-12-07T06:31:55;8.97;;;7.43;;
703;SDS011;335;48.694;9.120;2022-12-07T06:34:21;10.30;;;8.10;;
703;SDS011;335;48.694;9.120;2022-12-07T06:36:50;7.57;;;6.78;;
703;SDS011;335;48.694;9.120;2022-12-07T06:39:20;9.05;;;7.15;;
703;SDS011;335;48.694;9.120;2022-12-07T06:41:47;8.65;;;6.85;;
703;SDS011;335;48.694;9.120;2022-12-07T06:44:13;7.80;;;7.00;;
703;SDS011;335;48.694;9.120;2022-12-07T06:46:38;8.60;;;7.20;;
703;SDS011;335;48.694;9.120;2022-12-07T06:49:04;9.50;;;7.60;;
703;SDS011;335;48.694;9.120;2022-12-07T06:51:30;14.50;;;9.10;;
703;SDS011;335;48.694;9.120;2022-12-07T06:53:56;8.35;;;7.55;;
703;SDS011;335;48.694;9.120;2022-12-07T06:56:21;12.00;;;8.90;;
703;SDS011;335;48.694;9.120;2022-12-07T06:58:47;10.00;;;7.80;;
703;SDS011;335;48.694;9.120;2022-12-07T07:01:13;8.20;;;6.83;;
703;SDS011;335;48.694;9.120;2022-12-07T07:03:40;8.63;;;7.72;;
703;SDS011;335;48.694;9.120;2022-12-07T07:06:06;9.33;;;7.87;;
703;SDS011;335;48.694;9.120;2022-12-07T07:08:32;10.05;;;8.63;;
703;SDS011;335;48.694;9.120;2022-12-07T07:11:01;11.30;;;9.20;;
703;SDS011;335;48.694;9.120;2022-12-07T07:13:27;9.52;;;8.30;;
703;SDS011;335;48.694;9.120;2022-12-07T07:15:52;13.17;;;9.70;;
703;SDS011;335;48.694;9.120;2022-12-07T07:18:18;9.47;;;8.33;;
703;SDS011;335;48.694;9.120;2022-12-07T07:20:52;29.57;;;19.60;;
703;SDS011;335;48.694;9.120;2022-12-07T07:23:18;37.95;;;24.17;;
703;SDS011;335;48.694;9.120;2022-12-07T07:25:44;26.40;;;20.07;;
703;SDS011;335;48.694;9.120;2022-12-07T07:28:10;14.03;;;11.37;;
703;SDS011;335;48.694;9.120;2022-12-07T07:30:35;15.70;;;12.00;;
703;SDS011;335;48.694;9.120;2022-12-07T07:33:01;13.23;;;10.70;;
703;SDS011;335;48.694;9.120;2022-12-07T07:35:27;12.65;;;10.20;;
703;SDS011;335;48.694;9.120;2022-12-07T07:37:54;13.43;;;11.25;;
703;SDS011;335;48.694;9.120;2022-12-07T07:40:20;14.53;;;11.63;;
703;SDS011;335;48.694;9.120;2022-12-07T07:42:49;10.43;;;9.03;;
703;SDS011;335;48.694;9.120;2022-12-07T07:45:16;13.20;;;11.15;;
703;SDS011;335;48.694;9.120;2022-12-07T07:47:41;13.15;;;10.30;;
703;SDS011;335;48.694;9.120;2022-12-07T07:50:07;13.50;;;9.67;;
703;SDS011;335;48.694;9.120;2022-12-07T07:52:32;13.63;;;10.40;;
703;SDS011;335;48.694;9.120;2022-12-07T07:54:58;12.07;;;9.13;;
703;SDS011;335;48.694;9.120;2022-12-07T07:57:23;12.67;;;10.20;;
703;SDS011;335;48.694;9.120;2022-12-07T07:59:49;11.40;;;9.30;;
703;SDS011;335;48.694;9.120;2022-12-07T08:02:15;11.83;;;9.20;;
703;SDS011;335;48.694;9.120;2022-12-07T08:04:41;10.45;;;9.07;;
703;SDS011;335;48.694;9.120;2022-12-07T08:07:07;10.10;;;9.10;;
703;SDS011;335;48.694;9.120;2022-12-07T08:09:32;10.70;;;9.57;;
703;SDS011;335;48.694;9.120;2022-12-07T08:11:57;10.97;;;9.23;;
703;SDS011;335;48.694;9.120;2022-12-07T08:14:23;9.30;;;8.20;;
703;SDS011;335;48.694;9.120;2022-12-07T08:16:49;11.70;;;9.13;;
703;SDS011;335;48.694;9.120;2022-12-07T08:19:14;10.50;;;7.60;;
703;SDS011;335;48.694;9.120;2022-12-07T08:21:39;7.93;;;7.10;;
703;SDS011;335;48.694;9.120;2022-12-07T08:24:05;11.37;;;8.97;;
703;SDS011;335;48.694;9.120;2022-12-07T08:26:30;10.77;;;8.40;;
703;SDS011;335;48.694;9.120;2022-12-07T08:28:56;9.27;;;8.40;;
703;SDS011;335;48.694;9.120;2022-12-07T08:31:21;10.77;;;9.57;;
703;SDS011;335;48.694;9.120;2022-12-07T08:36:22;7.80;;;6.60;;
703;SDS011;335;48.694;9.120;2022-12-07T08:38:47;9.97;;;7.43;;
703;SDS011;335;48.694;9.120;2022-12-07T08:41:13;8.60;;;7.40;;
703;SDS011;335;48.694;9.120;2022-12-07T08:43:38;10.03;;;7.77;;
703;SDS011;335;48.694;9.120;2022-12-07T08:46:16;8.73;;;7.47;;
703;SDS011;335;48.694;9.120;2022-12-07T08:48:52;9.80;;;8.82;;
703;SDS011;335;48.694;9.120;2022-12-07T08:51:20;7.40;;;6.65;;
703;SDS011;335;48.694;9.120;2022-12-07T08:53:46;7.50;;;6.80;;
703;SDS011;335;48.694;9.120;2022-12-07T08:56:12;7.30;;;6.30;;
703;SDS011;335;48.694;9.120;2022-12-07T08:58:37;7.23;;;6.47;;
703;SDS011;335;48.694;9.120;2022-12-07T09:01:04;7.32;;;6.40;;
703;SDS011;335;48.694;9.120;2022-12-07T09:03:29;9.30;;;6.30;;
703;SDS011;335;48.694;9.120;2022-12-07T09:05:55;7.20;;;6.50;;
703;SDS011;335;48.694;9.120;2022-12-07T09:08:21;6.33;;;5.60;;
703;SDS011;335;48.694;9.120;2022-12-07T09:10:47;6.50;;;5.82;;
703;SDS011;335;48.694;9.120;2022-12-07T09:13:13;7.30;;;5.60;;
703;SDS011;335;48.694;9.120;2022-12-07T09:15:38;7.00;;;5.90;;
703;SDS011;335;48.694;9.120;2022-12-07T09:18:04;8.67;;;6.30;;
703;SDS011;335;48.694;9.120;2022-12-07T09:20:29;6.80;;;5.47;;
703;SDS011;335;48.694;9.120;2022-12-07T09:22:55;5.50;;;5.00;;
703;SDS011;335;48.694;9.120;2022-12-07T09:25:20;8.43;;;6.50;;
703;SDS011;335;48.694;9.120;2022-12-07T09:27:46;6.40;;;5.80;;
703;SDS011;335;48.694;9.120;2022-12-07T09:30:11;6.30;;;5.70;;
703;SDS011;335;48.694;9.120;2022-12-07T09:32:36;7.83;;;5.93;;
703;SDS011;335;48.694;9.120;2022-12-07T09:35:02;8.40;;;5.90;;
703;SDS011;335;48.694;9.120;2022-12-07T09:37:27;6.30;;;5.70;;
703;SDS011;335;48.694;9.120;2022-12-07T09:39:53;5.77;;;5.20;;
703;SDS011;335;48.694;9.120;2022-12-07T09:42:32;5.67;;;5.13;;
703;SDS011;335;48.694;9.120;2022-12-07T09:45:04;6.20;;;5.60;;
703;SDS011;335;48.694;9.120;2022-12-07T09:47:31;7.38;;;5.20;;
703;SDS011;335;48.694;9.120;2022-12-07T09:50:00;6.07;;;5.00;;
703;SDS011;335;48.694;9.120;2022-12-07T09:52:32;6.47;;;5.28;;
703;SDS011;335;48.694;9.120;2022-12-07T09:54:58;5.70;;;5.20;;
703;SDS011;335;48.694;9.120;2022-12-07T09:57:30;6.43;;;5.83;;
703;SDS011;335;48.694;9.120;2022-12-07T09:59:59;8.40;;;5.78;;
703;SDS011;335;48.694;9.120;2022-12-07T10:05:07;5.93;;;5.32;;
703;SDS011;335;48.694;9.120;2022-12-07T10:07:37;6.93;;;4.55;;
703;SDS011;335;48.694;9.120;2022-12-07T10:10:04;5.93;;;5.30;;
703;SDS011;335;48.694;9.120;2022-12-07T10:15:23;5.85;;;4.35;;
703;SDS011;335;48.694;9.120;2022-12-07T10:18:13;13.40;;;5.45;;
703;SDS011;335;48.694;9.120;2022-12-07T10:20:46;6.15;;;5.00;;
703;SDS011;335;48.694;9.120;2022-12-07T10:23:16;5.05;;;4.65;;
703;SDS011;335;48.694;9.120;2022-12-07T10:25:43;4.93;;;4.43;;
703;SDS011;335;48.694;9.120;2022-12-07T10:28:16;6.82;;;5.63;;
703;SDS011;335;48.694;9.120;2022-12-07T10:30:56;5.82;;;5.32;;
703;SDS011;335;48.694;9.120;2022-12-07T10:33:29;9.20;;;5.60;;
703;SDS011;335;48.694;9.120;2022-12-07T10:35:56;10.98;;;4.97;;
703;SDS011;335;48.694;9.120;2022-12-07T10:38:22;6.97;;;5.63;;
703;SDS011;335;48.694;9.120;2022-12-07T10:40:51;5.97;;;5.47;;
703;SDS011;335;48.694;9.120;2022-12-07T10:43:28;6.00;;;5.40;;
703;SDS011;335;48.694;9.120;2022-12-07T10:49:04;5.97;;;5.38;;
703;SDS011;335;48.694;9.120;2022-12-07T10:51:45;5.85;;;4.65;;
703;SDS011;335;48.694;9.120;2022-12-07T10:54:28;5.82;;;4.40;;
703;SDS011;335;48.694;9.120;2022-12-07T11:00:24;6.28;;;5.20;;
703;SDS011;335;48.694;9.120;2022-12-07T11:05:56;6.03;;;5.53;;
703;SDS011;335;48.694;9.120;2022-12-07T11:08:39;6.63;;;6.03;;
703;SDS011;335;48.694;9.120;2022-12-07T11:16:37;5.25;;;4.45;;
703;SDS011;335;48.694;9.120;2022-12-07T11:19:13;5.00;;;4.50;;
703;SDS011;335;48.694;9.120;2022-12-07T11:21:55;4.72;;;4.22;;
703;SDS011;335;48.694;9.120;2022-12-07T11:24:28;4.40;;;4.00;;
703;SDS011;335;48.694;9.120;2022-12-07T11:27:03;4.75;;;4.35;;
703;SDS011;335;48.694;9.120;2022-12-07T11:30:08;8.77;;;4.68;;
703;SDS011;335;48.694;9.120;2022-12-07T11:35:30;5.22;;;4.47;;
703;SDS011;335;48.694;9.120;2022-12-07T11:38:07;5.47;;;3.88;;
703;SDS011;335;48.694;9.120;2022-12-07T11:40:35;5.32;;;4.07;;
703;SDS011;335;48.694;9.120;2022-12-07T11:43:19;5.10;;;4.55;;
703;SDS011;335;48.694;9.120;2022-12-07T11:46:02;5.60;;;4.18;;
703;SDS011;335;48.694;9.120;2022-12-07T11:48:38;5.00;;;4.50;;
703;SDS011;335;48.694;9.120;2022-12-07T11:51:07;5.20;;;3.75;;
703;SDS011;335;48.694;9.120;2022-12-07T11:53:38;3.90;;;3.60;;
703;SDS011;335;48.694;9.120;2022-12-07T12:03:56;4.53;;;4.13;;
703;SDS011;335;48.694;9.120;2022-12-07T12:06:26;3.80;;;3.50;;
703;SDS011;335;48.694;9.120;2022-12-07T12:09:03;3.40;;;3.20;;
703;SDS011;335;48.694;9.120;2022-12-07T12:25:24;4.18;;;3.90;;
703;SDS011;335;48.694;9.120;2022-12-07T12:27:52;4.40;;;4.10;;
703;SDS011;335;48.694;9.120;2022-12-07T12:30:40;3.90;;;3.60;;
703;SDS011;335;48.694;9.120;2022-12-07T12:33:24;4.00;;;3.70;;
703;SDS011;335;48.694;9.120;2022-12-07T12:44:46;5.30;;;3.85;;
703;SDS011;335;48.694;9.120;2022-12-07T12:47:02;5.30;;;4.32;;
703;SDS011;335;48.694;9.120;2022-12-07T12:49:39;5.00;;;4.45;;
703;SDS011;335;48.694;9.120;2022-12-07T12:52:45;4.72;;;4.22;;
703;SDS011;335;48.694;9.120;2022-12-07T12:57:33;3.53;;;3.28;;
703;SDS011;335;48.694;9.120;2022-12-07T12:59:59;3.60;;;3.30;;
703;SDS011;335;48.694;9.120;2022-12-07T13:02:47;2.78;;;2.42;;
703;SDS011;335;48.694;9.120;2022-12-07T13:05:18;2.40;;;2.17;;
703;SDS011;335;48.694;9.120;2022-12-07T13:08:21;2.72;;;2.53;;
703;SDS011;335;48.694;9.120;2022-12-07T13:10:46;3.70;;;2.60;;
703;SDS011;335;48.694;9.120;2022-12-07T13:15:46;4.03;;;2.90;;
703;SDS011;335;48.694;9.120;2022-12-07T13:18:25;2.88;;;2.67;;
703;SDS011;335;48.694;9.120;2022-12-07T13:28:38;4.25;;;3.90;;
703;SDS011;335;48.694;9.120;2022-12-07T13:31:11;3.30;;;3.10;;
703;SDS011;335;48.694;9.120;2022-12-07T13:33:38;3.50;;;3.22;;
703;SDS011;335;48.694;9.120;2022-12-07T13:36:03;4.63;;;2.97;;
703;SDS011;335;48.694;9.120;2022-12-07T13:38:56;2.70;;;2.60;;
703;SDS011;335;48.694;9.120;2022-12-07T13:41:27;3.45;;;3.15;;
703;SDS011;335;48.694;9.120;2022-12-07T13:49:47;3.22;;;3.03;;
703;SDS011;335;48.694;9.120;2022-12-07T13:52:16;3.33;;;3.13;;
703;SDS011;335;48.694;9.120;2022-12-07T13:55:15;4.10;;;3.80;;
703;SDS011;335;48.694;9.120;2022-12-07T13:57:40;3.65;;;3.35;;
703;SDS011;335;48.694;9.120;2022-12-07T14:02:57;3.60;;;3.30;;
703;SDS011;335;48.694;9.120;2022-12-07T14:05:27;4.57;;;4.25;;
703;SDS011;335;48.694;9.120;2022-12-07T14:10:53;3.40;;;3.20;;
703;SDS011;335;48.694;9.120;2022-12-07T14:13:30;3.75;;;3.45;;
703;SDS011;335;48.694;9.120;2022-12-07T14:16:18;3.45;;;3.25;;
703;SDS011;335;48.694;9.120;2022-12-07T14:18:51;3.70;;;3.47;;
703;SDS011;335;48.694;9.120;2022-12-07T14:21:17;3.50;;;3.30;;
703;SDS011;335;48.694;9.120;2022-12-07T14:23:44;3.63;;;3.33;;
703;SDS011;335;48.694;9.120;2022-12-07T14:28:39;4.80;;;4.03;;
703;SDS011;335;48.694;9.120;2022-12-07T14:33:42;6.30;;;5.72;;
703;SDS011;335;48.694;9.120;2022-12-07T14:36:11;3.93;;;3.53;;
703;SDS011;335;48.694;9.120;2022-12-07T14:38:37;8.90;;;8.07;;
703;SDS011;335;48.694;9.120;2022-12-07T14:41:03;8.00;;;7.23;;
703;SDS011;335;48.694;9.120;2022-12-07T14:43:48;6.60;;;6.00;;
703;SDS011;335;48.694;9.120;2022-12-07T14:46:13;2.77;;;2.50;;
703;SDS011;335;48.694;9.120;2022-12-07T14:48:39;4.83;;;4.43;;
703;SDS011;335;48.694;9.120;2022-12-07T14:51:04;4.43;;;4.03;;
703;SDS011;335;48.694;9.120;2022-12-07T14:53:35;7.23;;;6.53;;
703;SDS011;335;48.694;9.120;2022-12-07T14:56:02;4.18;;;3.85;;
703;SDS011;335;48.694;9.120;2022-12-07T14:58:30;3.30;;;3.10;;
703;SDS011;335;48.694;9.120;2022-12-07T15:00:55;2.93;;;2.67;;
703;SDS011;335;48.694;9.120;2022-12-07T15:03:21;6.47;;;5.87;;
703;SDS011;335;48.694;9.120;2022-12-07T15:05:46;6.80;;;5.63;;
703;SDS011;335;48.694;9.120;2022-12-07T15:08:12;3.17;;;2.97;;
703;SDS011;335;48.694;9.120;2022-12-07T15:10:37;3.53;;;3.17;;
703;SDS011;335;48.694;9.120;2022-12-07T15:13:03;3.03;;;2.87;;
703;SDS011;335;48.694;9.120;2022-12-07T15:15:48;2.65;;;2.45;;
703;SDS011;335;48.694;9.120;2022-12-07T15:18:15;3.28;;;2.97;;
703;SDS011;335;48.694;9.120;2022-12-07T15:20:41;4.80;;;3.70;;
703;SDS011;335;48.694;9.120;2022-12-07T15:23:07;3.60;;;3.30;;
703;SDS011;335;48.694;9.120;2022-12-07T15:25:32;5.47;;;3.63;;
703;SDS011;335;48.694;9.120;2022-12-07T15:27:58;5.33;;;4.93;;
703;SDS011;335;48.694;9.120;2022-12-07T15:30:23;5.90;;;5.40;;
703;SDS011;335;48.694;9.120;2022-12-07T15:32:49;5.80;;;5.30;;
703;SDS011;335;48.694;9.120;2022-12-07T15:35:15;5.97;;;5.47;;
703;SDS011;335;48.694;9.120;2022-12-07T15:37:40;5.47;;;4.97;;
703;SDS011;335;48.694;9.120;2022-12-07T15:40:06;5.33;;;4.87;;
703;SDS011;335;48.694;9.120;2022-12-07T15:42:32;7.40;;;5.15;;
703;SDS011;335;48.694;9.120;2022-12-07T15:44:57;5.17;;;4.67;;
703;SDS011;335;48.694;9.120;2022-12-07T15:47:29;4.38;;;4.07;;
703;SDS011;335;48.694;9.120;2022-12-07T15:49:55;5.00;;;4.40;;
703;SDS011;335;48.694;9.120;2022-12-07T15:52:20;7.20;;;5.93;;
703;SDS011;335;48.694;9.120;2022-12-07T15:54:46;6.13;;;5.57;;
703;SDS011;335;48.694;9.120;2022-12-07T15:57:12;5.63;;;5.13;;
703;SDS011;335;48.694;9.120;2022-12-07T15:59:38;7.83;;;7.23;;
703;SDS011;335;48.694;9.120;2022-12-07T16:02:03;7.97;;;7.17;;
703;SDS011;335;48.694;9.120;2022-12-07T16:04:28;6.80;;;6.20;;
703;SDS011;335;48.694;9.120;2022-12-07T16:06:57;6.63;;;5.90;;
703;SDS011;335;48.694;9.120;2022-12-07T16:09:22;7.07;;;6.30;;
703;SDS011;335;48.694;9.120;2022-12-07T16:11:47;9.30;;;8.07;;
703;SDS011;335;48.694;9.120;2022-12-07T16:14:15;6.55;;;5.85;;
703;SDS011;335;48.694;9.120;2022-12-07T16:16:40;7.33;;;6.67;;
703;SDS011;335;48.694;9.120;2022-12-07T16:19:06;6.50;;;5.53;;
703;SDS011;335;48.694;9.120;2022-12-07T16:21:33;7.32;;;6.35;;
703;SDS011;335;48.694;9.120;2022-12-07T16:23:59;9.15;;;8.07;;
703;SDS011;335;48.694;9.120;2022-12-07T16:26:25;5.83;;;5.33;;
703;SDS011;335;48.694;9.120;2022-12-07T16:28:50;7.10;;;5.80;;
703;SDS011;335;48.694;9.120;2022-12-07T16:31:18;8.18;;;7.03;;
703;SDS011;335;48.694;9.120;2022-12-07T16:33:48;8.82;;;6.15;;
703;SDS011;335;48.694;9.120;2022-12-07T16:36:14;7.03;;;6.10;;
703;SDS011;335;48.694;9.120;2022-12-07T16:38:41;6.55;;;5.95;;
703;SDS011;335;48.694;9.120;2022-12-07T16:41:07;8.13;;;7.32;;
703;SDS011;335;48.694;9.120;2022-12-07T16:43:32;7.53;;;6.73;;
703;SDS011;335;48.694;9.120;2022-12-07T16:45:58;7.50;;;6.70;;
703;SDS011;335;48.694;9.120;2022-12-07T16:48:24;6.87;;;6.27;;
703;SDS011;335;48.694;9.120;2022-12-07T16:50:49;9.00;;;8.10;;
703;SDS011;335;48.694;9.120;2022-12-07T16:53:15;9.23;;;7.93;;
703;SDS011;335;48.694;9.120;2022-12-07T16:55:44;7.27;;;6.20;;
703;SDS011;335;48.694;9.120;2022-12-07T16:58:10;9.60;;;7.25;;
703;SDS011;335;48.694;9.120;2022-12-07T17:00:39;9.20;;;7.45;;
703;SDS011;335;48.694;9.120;2022-12-07T17:03:05;9.18;;;8.27;;
703;SDS011;335;48.694;9.120;2022-12-07T17:05:30;8.27;;;6.77;;
703;SDS011;335;48.694;9.120;2022-12-07T17:07:56;8.00;;;7.20;;
703;SDS011;335;48.694;9.120;2022-12-07T17:10:22;9.60;;;7.10;;
703;SDS011;335;48.694;9.120;2022-12-07T17:12:48;8.95;;;6.60;;
703;SDS011;335;48.694;9.120;2022-12-07T17:15:14;8.05;;;6.88;;
703;SDS011;335;48.694;9.120;2022-12-07T17:17:47;10.20;;;7.65;;
703;SDS011;335;48.694;9.120;2022-12-07T17:20:17;9.38;;;8.13;;
703;SDS011;335;48.694;9.120;2022-12-07T17:22:43;7.70;;;6.97;;
703;SDS011;335;48.694;9.120;2022-12-07T17:25:09;9.40;;;8.03;;
703;SDS011;335;48.694;9.120;2022-12-07T17:27:35;9.40;;;7.70;;
703;SDS011;335;48.694;9.120;2022-12-07T17:30:01;11.40;;;8.40;;
703;SDS011;335;48.694;9.120;2022-12-07T17:32:28;11.05;;;9.00;;
703;SDS011;335;48.694;9.120;2022-12-07T17:34:53;10.70;;;8.97;;
703;SDS011;335;48.694;9.120;2022-12-07T17:37:19;9.80;;;7.97;;
703;SDS011;335;48.694;9.120;2022-12-07T17:39:44;9.80;;;8.63;;
703;SDS011;335;48.694;9.120;2022-12-07T17:42:10;10.87;;;8.93;;
703;SDS011;335;48.694;9.120;2022-12-07T17:44:54;8.10;;;7.03;;